»·PEaware :: AAL555 KJFK-KMIA

AAL555 :: KJFK-KMIA

FLIGHT INFORMATION

Flight Status: Arrived
Operator:
American Airlines
More flights by this operator :: More flights under this callsign
Pilot: Jeff G. (394)
Aircraft: BOEING 767-300
(B763)
More flights by this aircraft type
Origin: KJFK Kennedy Intl
United States
Destination: KMIA Miami Intl
United States
More flights between these airports :: More routes between these airports
Route: WAVEY EMJAY J174 SWL CEBEE WETRO DIW AR22 JORAY HILEY6
File this flight plan on PilotEdge
Remarks:
Altitude:
(Current/Filed)
360ft
Speed:
(Current/Filed)
463kts
Departed: 31-Jan-17 06:50 AM
Arrived: 31-Jan-17 09:36 AM
Distance/Time
Traveled:
948nm/2:46
Distance/Time
To Go:
Arrived

Flight Plot

Page will automatically refresh every two minutes.


Map Options




Map Legend


Flown Route
Filed Route
Departure Airport
Arrival Airport
Navaid (VOR, NDB)
Fix

Horizontal Profiles

Position Reports

Time Latitude Longitude Heading Altitude Ground
Speed
31-Jan-17 06:07 40.647093 -73.795068 160 18ft 0kts
31-Jan-17 06:08 40.647093 -73.795068 160 18ft 0kts
31-Jan-17 06:09 40.647093 -73.795068 160 18ft 0kts
31-Jan-17 06:10 40.647093 -73.795069 160 18ft 0kts
31-Jan-17 06:11 40.647093 -73.795069 160 18ft 0kts
31-Jan-17 06:12 40.647093 -73.795069 160 18ft 0kts
31-Jan-17 06:13 40.647093 -73.795069 160 18ft 0kts
31-Jan-17 06:14 40.647093 -73.795069 160 18ft 0kts
31-Jan-17 06:15 40.647093 -73.795069 160 18ft 0kts
31-Jan-17 06:16 40.647093 -73.795069 160 18ft 0kts
31-Jan-17 06:17 40.647093 -73.795069 160 18ft 0kts
31-Jan-17 06:18 40.647093 -73.795068 160 18ft 0kts
31-Jan-17 06:19 40.647093 -73.795068 160 18ft 0kts
31-Jan-17 06:20 40.647093 -73.795068 160 18ft 0kts
31-Jan-17 06:21 40.647093 -73.795068 160 18ft 0kts
31-Jan-17 06:22 40.647093 -73.795068 160 18ft 0kts
31-Jan-17 06:23 40.647093 -73.795068 160 18ft 0kts
31-Jan-17 06:24 40.647093 -73.795068 160 18ft 0kts
31-Jan-17 06:25 40.647093 -73.795069 160 18ft 0kts
31-Jan-17 06:26 40.647331 -73.795182 160 18ft 0kts
31-Jan-17 06:27 40.647723 -73.795272 221 18ft 0kts
31-Jan-17 06:28 40.647753 -73.795225 242 18ft 0kts
31-Jan-17 06:29 40.647753 -73.795225 242 18ft 0kts
31-Jan-17 06:30 40.647753 -73.795225 242 18ft 0kts
31-Jan-17 06:31 40.647753 -73.795225 242 18ft 0kts
31-Jan-17 06:32 40.647753 -73.795225 242 18ft 0kts
31-Jan-17 06:33 40.647753 -73.795225 242 18ft 0kts
31-Jan-17 06:34 40.647753 -73.795225 242 18ft 0kts
31-Jan-17 06:35 40.647753 -73.795225 242 18ft 0kts
31-Jan-17 06:36 40.647753 -73.795225 242 18ft 0kts
31-Jan-17 06:37 40.647753 -73.795225 242 18ft 0kts
31-Jan-17 06:38 40.647729 -73.795285 241 18ft 2kts
31-Jan-17 06:39 40.646193 -73.795404 148 18ft 5kts
31-Jan-17 06:40 40.643444 -73.794807 181 18ft 7kts
31-Jan-17 06:41 40.640043 -73.795049 161 18ft 15kts
31-Jan-17 06:42 40.637501 -73.789865 120 17ft 19kts
31-Jan-17 06:43 40.636101 -73.786807 120 17ft 13kts
31-Jan-17 06:44 40.634454 -73.783169 120 14ft 3kts
31-Jan-17 06:45 40.633054 -73.780315 142 15ft 7kts
31-Jan-17 06:46 40.627173 -73.783254 209 12ft 33kts
31-Jan-17 06:47 40.622695 -73.786674 0 11ft 0kts
31-Jan-17 06:48 40.622263 -73.785918 115 11ft 4kts
31-Jan-17 06:49 40.622601 -73.785161 28 11ft 0kts
31-Jan-17 06:50 40.639410 -73.770051 55 282ft 140kts
31-Jan-17 06:51 40.644016 -73.699303 87 1283ft 226kts
31-Jan-17 06:52 40.644856 -73.616381 94 2161ft 233kts
31-Jan-17 06:53 40.649536 -73.530537 84 3438ft 246kts
31-Jan-17 06:54 40.631826 -73.443904 149 5864ft 280kts
31-Jan-17 06:55 40.555892 -73.411931 169 8337ft 298kts
31-Jan-17 06:56 40.475385 -73.386120 177 10997ft 320kts
31-Jan-17 06:57 40.377367 -73.357853 174 13734ft 388kts
31-Jan-17 06:58 40.270861 -73.325544 175 17356ft 409kts
31-Jan-17 06:59 40.158583 -73.306629 197 20508ft 405kts
31-Jan-17 07:00 40.048104 -73.337518 210 23334ft 409kts
31-Jan-17 07:01 39.955984 -73.418400 226 25855ft 408kts
31-Jan-17 07:02 39.868278 -73.513920 227 28129ft 421kts
31-Jan-17 07:03 39.779558 -73.612299 228 30740ft 419kts
31-Jan-17 07:04 39.693793 -73.707304 227 33733ft 398kts
31-Jan-17 07:05 39.623825 -73.784734 228 35444ft 393kts
31-Jan-17 07:06 39.541663 -73.875341 228 36041ft 391kts
31-Jan-17 07:07 39.458831 -73.966354 228 36038ft 390kts
31-Jan-17 07:08 39.377202 -74.055745 228 36028ft 385kts
31-Jan-17 07:09 39.295823 -74.144581 228 36033ft 385kts
31-Jan-17 07:10 39.214123 -74.233513 228 36034ft 386kts
31-Jan-17 07:11 39.132194 -74.322397 228 36029ft 387kts
31-Jan-17 07:12 39.050600 -74.410633 228 36027ft 385kts
31-Jan-17 07:13 38.969984 -74.497506 229 36033ft 381kts
31-Jan-17 07:14 38.892357 -74.580890 230 35990ft 365kts
31-Jan-17 07:15 38.815158 -74.663566 230 36003ft 365kts
31-Jan-17 07:16 38.737226 -74.746797 230 36008ft 366kts
31-Jan-17 07:17 38.659545 -74.829578 230 36009ft 366kts
31-Jan-17 07:18 38.581820 -74.912155 230 36016ft 366kts
31-Jan-17 07:19 38.504126 -74.994461 230 36019ft 365kts
31-Jan-17 07:20 38.426192 -75.076780 230 36015ft 366kts
31-Jan-17 07:21 38.348320 -75.158819 230 36011ft 367kts
31-Jan-17 07:22 38.270342 -75.240706 231 35994ft 365kts
31-Jan-17 07:23 38.192457 -75.322271 231 35984ft 366kts
31-Jan-17 07:24 38.114350 -75.403837 231 35990ft 367kts
31-Jan-17 07:25 38.030671 -75.479080 219 36003ft 386kts
31-Jan-17 07:26 37.934685 -75.537082 219 35995ft 387kts
31-Jan-17 07:27 37.838422 -75.594709 219 35987ft 387kts
31-Jan-17 07:28 37.742403 -75.651980 218 35979ft 387kts
31-Jan-17 07:29 37.646857 -75.708788 218 35995ft 386kts
31-Jan-17 07:30 37.550257 -75.766093 218 36000ft 387kts
31-Jan-17 07:31 37.454014 -75.822989 218 35995ft 387kts
31-Jan-17 07:32 37.357210 -75.880055 218 35993ft 386kts
31-Jan-17 07:33 37.260658 -75.936825 218 36000ft 387kts
31-Jan-17 07:34 37.163652 -75.993693 218 36015ft 387kts
31-Jan-17 07:35 37.066564 -76.050505 217 36019ft 392kts
31-Jan-17 07:36 36.966776 -76.108685 215 36015ft 402kts
31-Jan-17 07:37 36.865826 -76.167280 215 36022ft 402kts
31-Jan-17 07:38 36.764618 -76.225884 215 36024ft 402kts
31-Jan-17 07:39 36.663332 -76.284374 215 36024ft 403kts
31-Jan-17 07:40 36.562460 -76.342460 215 36022ft 403kts
31-Jan-17 07:41 36.461142 -76.400620 215 36019ft 402kts
31-Jan-17 07:42 36.360100 -76.458398 215 36031ft 403kts
31-Jan-17 07:43 36.258695 -76.516019 215 36036ft 403kts
31-Jan-17 07:44 36.157379 -76.573434 215 36057ft 402kts
31-Jan-17 07:45 36.056184 -76.630615 215 36057ft 403kts
31-Jan-17 07:46 35.954723 -76.687769 214 36078ft 402kts
31-Jan-17 07:47 35.853239 -76.744777 214 36076ft 402kts
31-Jan-17 07:48 35.751490 -76.801786 214 36106ft 402kts
31-Jan-17 07:49 35.649863 -76.858566 214 36141ft 404kts
31-Jan-17 07:50 35.547545 -76.915567 214 36141ft 404kts
31-Jan-17 07:51 35.445359 -76.972324 215 36137ft 404kts
31-Jan-17 07:52 35.343272 -77.028876 215 36136ft 405kts
31-Jan-17 07:53 35.240471 -77.085670 215 36134ft 406kts
31-Jan-17 07:54 35.137826 -77.142211 215 36133ft 406kts
31-Jan-17 07:55 35.035295 -77.198541 215 36133ft 406kts
31-Jan-17 07:56 34.932396 -77.254954 213 36128ft 410kts
31-Jan-17 07:57 34.832564 -77.309471 212 36123ft 412kts
31-Jan-17 07:58 34.727971 -77.366447 212 36124ft 413kts
31-Jan-17 07:59 34.623883 -77.422999 212 36124ft 412kts
31-Jan-17 08:00 34.516452 -77.469583 204 36110ft 408kts
31-Jan-17 08:01 34.406782 -77.505557 204 36123ft 410kts
31-Jan-17 08:02 34.296985 -77.541145 203 36133ft 409kts
31-Jan-17 08:03 34.186878 -77.576724 203 36145ft 411kts
31-Jan-17 08:04 34.076726 -77.612225 204 36147ft 410kts
31-Jan-17 08:05 33.966717 -77.647575 204 36144ft 412kts
31-Jan-17 08:06 33.856673 -77.682840 203 36166ft 411kts
31-Jan-17 08:07 33.746426 -77.718066 203 36159ft 411kts
31-Jan-17 08:08 33.636555 -77.753097 203 36159ft 411kts
31-Jan-17 08:09 33.526090 -77.788213 203 36158ft 413kts
31-Jan-17 08:10 33.415900 -77.823144 203 36157ft 410kts
31-Jan-17 08:11 33.305465 -77.858079 203 36163ft 411kts
31-Jan-17 08:12 33.195772 -77.892668 203 36178ft 408kts
31-Jan-17 08:13 33.086756 -77.926981 203 36181ft 407kts
31-Jan-17 08:14 32.977528 -77.961260 202 36182ft 407kts
31-Jan-17 08:15 32.868401 -77.995415 202 36182ft 406kts
31-Jan-17 08:16 32.759196 -78.029508 202 36185ft 407kts
31-Jan-17 08:17 32.649941 -78.063539 202 36186ft 408kts
31-Jan-17 08:18 32.540781 -78.097445 202 36186ft 407kts
31-Jan-17 08:19 32.431694 -78.131246 202 36191ft 407kts
31-Jan-17 08:20 32.322405 -78.165030 202 36192ft 408kts
31-Jan-17 08:21 32.212883 -78.198793 202 36194ft 407kts
31-Jan-17 08:22 32.103842 -78.232333 202 36196ft 407kts
31-Jan-17 08:23 31.994758 -78.266182 203 36195ft 406kts
31-Jan-17 08:24 31.886006 -78.301023 203 36198ft 407kts
31-Jan-17 08:25 31.777083 -78.335820 203 36198ft 407kts
31-Jan-17 08:26 31.668547 -78.370401 203 36200ft 406kts
31-Jan-17 08:27 31.559793 -78.404970 203 36206ft 406kts
31-Jan-17 08:28 31.451551 -78.439298 203 36204ft 407kts
31-Jan-17 08:29 31.342674 -78.473741 203 36205ft 405kts
31-Jan-17 08:30 31.234086 -78.508006 203 36200ft 405kts
31-Jan-17 08:31 31.124963 -78.542369 203 36208ft 406kts
31-Jan-17 08:32 31.016376 -78.576473 203 36219ft 407kts
31-Jan-17 08:33 30.907420 -78.610627 202 36217ft 408kts
31-Jan-17 08:34 30.799327 -78.644397 202 36222ft 406kts
31-Jan-17 08:35 30.691220 -78.678109 202 36228ft 408kts
31-Jan-17 08:36 30.579886 -78.705003 196 36237ft 413kts
31-Jan-17 08:37 30.466186 -78.724973 196 36279ft 414kts
31-Jan-17 08:38 30.352691 -78.744711 195 36332ft 414kts
31-Jan-17 08:39 30.239131 -78.764401 195 36332ft 414kts
31-Jan-17 08:40 30.125719 -78.784031 195 36339ft 415kts
31-Jan-17 08:41 30.012125 -78.803625 195 36343ft 415kts
31-Jan-17 08:42 29.898489 -78.823186 196 36346ft 414kts
31-Jan-17 08:43 29.785521 -78.842567 195 36351ft 414kts
31-Jan-17 08:44 29.671005 -78.857993 194 36348ft 415kts
31-Jan-17 08:45 29.556786 -78.873265 194 36351ft 417kts
31-Jan-17 08:46 29.442412 -78.888512 194 36349ft 415kts
31-Jan-17 08:47 29.327567 -78.903804 194 36353ft 417kts
31-Jan-17 08:48 29.213077 -78.919129 194 36346ft 415kts
31-Jan-17 08:49 29.098832 -78.934445 194 36348ft 415kts
31-Jan-17 08:50 28.985972 -78.949510 197 36348ft 406kts
31-Jan-17 08:51 28.875456 -78.964310 198 36348ft 402kts
31-Jan-17 08:52 28.764677 -78.979092 198 36350ft 403kts
31-Jan-17 08:53 28.653513 -78.993877 198 36348ft 404kts
31-Jan-17 08:54 28.542395 -79.008617 197 36346ft 403kts
31-Jan-17 08:55 28.431377 -79.023327 197 36351ft 405kts
31-Jan-17 08:56 28.320292 -79.039509 205 36355ft 394kts
31-Jan-17 08:57 28.216038 -79.073773 206 36358ft 393kts
31-Jan-17 08:58 28.111545 -79.106116 205 36358ft 394kts
31-Jan-17 08:59 28.005892 -79.138526 205 36354ft 395kts
31-Jan-17 09:00 27.900227 -79.170843 205 36358ft 396kts
31-Jan-17 09:01 27.794589 -79.203084 205 36370ft 397kts
31-Jan-17 09:02 27.689096 -79.235221 205 36371ft 397kts
31-Jan-17 09:03 27.583009 -79.267473 205 36370ft 397kts
31-Jan-17 09:04 27.477723 -79.299423 205 36365ft 397kts
31-Jan-17 09:05 27.372303 -79.331341 205 36350ft 397kts
31-Jan-17 09:06 27.266509 -79.363315 205 36351ft 398kts
31-Jan-17 09:07 27.160999 -79.395137 205 36355ft 398kts
31-Jan-17 09:08 27.054947 -79.427563 205 35920ft 396kts
31-Jan-17 09:09 26.948653 -79.460128 205 34877ft 403kts
31-Jan-17 09:10 26.845632 -79.491599 205 33901ft 409kts
31-Jan-17 09:11 26.736574 -79.524846 204 32877ft 412kts
31-Jan-17 09:12 26.629824 -79.565192 214 31754ft 404kts
31-Jan-17 09:13 26.534714 -79.626763 229 30025ft 397kts
31-Jan-17 09:14 26.472545 -79.723059 239 28296ft 395kts
31-Jan-17 09:15 26.413898 -79.824372 239 26643ft 402kts
31-Jan-17 09:16 26.343001 -79.919224 227 24692ft 402kts
31-Jan-17 09:17 26.272901 -79.993550 227 22271ft 323kts
31-Jan-17 09:18 26.184371 -80.033258 199 21208ft 359kts
31-Jan-17 09:19 26.089220 -80.059770 198 19697ft 350kts
31-Jan-17 09:20 25.995534 -80.086197 200 18491ft 347kts
31-Jan-17 09:21 25.930366 -80.154899 238 17305ft 332kts
31-Jan-17 09:22 25.894352 -80.247537 249 16062ft 330kts
31-Jan-17 09:23 25.880790 -80.338425 265 14350ft 298kts
31-Jan-17 09:24 25.875309 -80.428050 265 12830ft 286kts
31-Jan-17 09:25 25.870176 -80.514397 266 11301ft 277kts
31-Jan-17 09:26 25.865109 -80.599061 266 9621ft 275kts
31-Jan-17 09:27 25.859932 -80.683096 263 7940ft 274kts
31-Jan-17 09:28 25.804734 -80.722614 157 6092ft 249kts
31-Jan-17 09:29 25.779876 -80.660401 91 4379ft 225kts
31-Jan-17 09:30 25.776025 -80.595971 91 3197ft 183kts
31-Jan-17 09:31 25.773817 -80.539218 87 3206ft 185kts
31-Jan-17 09:32 25.775400 -80.481057 84 1905ft 211kts
31-Jan-17 09:33 25.775471 -80.419214 87 315ft 187kts
31-Jan-17 09:34 25.781427 -80.360764 74 844ft 162kts
31-Jan-17 09:35 25.786060 -80.312807 84 80ft 153kts
31-Jan-17 09:36 25.787692 -80.287483 52 17ft 20kts
31-Jan-17 09:37 25.788685 -80.286453 41 17ft 13kts
31-Jan-17 09:38 25.790485 -80.284872 36 17ft 16kts
31-Jan-17 09:39 25.792833 -80.283235 46 17ft 3kts
31-Jan-17 09:40 25.794070 -80.283458 326 17ft 2kts
31-Jan-17 09:41 25.794291 -80.283622 326 17ft 0kts

Navigation Log

Ident Type
Flight plan parsing failed, navigation log unavailable